sensor_id;sensor_type;location;lat;lon;timestamp;P1;durP1;ratioP1;P2;durP2;ratioP2
46931;SDS011;32670;51.464;11.964;2023-06-10T00:00:49;3.60;;;3.30;;
46931;SDS011;32670;51.464;11.964;2023-06-10T00:03:16;5.20;;;3.40;;
46931;SDS011;32670;51.464;11.964;2023-06-10T00:05:41;4.40;;;3.50;;
46931;SDS011;32670;51.464;11.964;2023-06-10T00:08:07;4.00;;;3.53;;
46931;SDS011;32670;51.464;11.964;2023-06-10T00:10:36;4.00;;;3.33;;
46931;SDS011;32670;51.464;11.964;2023-06-10T00:13:04;7.27;;;3.43;;
46931;SDS011;32670;51.464;11.964;2023-06-10T00:15:30;4.70;;;3.60;;
46931;SDS011;32670;51.464;11.964;2023-06-10T00:17:56;4.70;;;3.53;;
46931;SDS011;32670;51.464;11.964;2023-06-10T00:20:21;4.60;;;3.50;;
46931;SDS011;32670;51.464;11.964;2023-06-10T00:22:48;5.50;;;3.70;;
46931;SDS011;32670;51.464;11.964;2023-06-10T00:25:14;3.73;;;3.30;;
46931;SDS011;32670;51.464;11.964;2023-06-10T00:27:40;4.83;;;3.10;;
46931;SDS011;32670;51.464;11.964;2023-06-10T00:30:06;6.07;;;3.40;;
46931;SDS011;32670;51.464;11.964;2023-06-10T00:32:35;7.03;;;3.13;;
46931;SDS011;32670;51.464;11.964;2023-06-10T00:35:01;4.67;;;3.63;;
46931;SDS011;32670;51.464;11.964;2023-06-10T00:37:31;3.43;;;3.07;;
46931;SDS011;32670;51.464;11.964;2023-06-10T00:39:57;3.57;;;2.77;;
46931;SDS011;32670;51.464;11.964;2023-06-10T00:42:23;4.47;;;3.10;;
46931;SDS011;32670;51.464;11.964;2023-06-10T00:44:49;6.27;;;3.50;;
46931;SDS011;32670;51.464;11.964;2023-06-10T00:47:15;5.00;;;3.30;;
46931;SDS011;32670;51.464;11.964;2023-06-10T00:49:41;7.27;;;3.43;;
46931;SDS011;32670;51.464;11.964;2023-06-10T00:52:06;6.57;;;3.30;;
46931;SDS011;32670;51.464;11.964;2023-06-10T00:54:33;7.23;;;3.90;;
46931;SDS011;32670;51.464;11.964;2023-06-10T00:57:00;3.90;;;3.23;;
46931;SDS011;32670;51.464;11.964;2023-06-10T00:59:28;4.87;;;3.30;;
46931;SDS011;32670;51.464;11.964;2023-06-10T01:01:54;5.03;;;3.47;;
46931;SDS011;32670;51.464;11.964;2023-06-10T01:04:20;7.50;;;3.47;;
46931;SDS011;32670;51.464;11.964;2023-06-10T01:06:49;3.97;;;3.30;;
46931;SDS011;32670;51.464;11.964;2023-06-10T01:09:32;4.27;;;3.33;;
46931;SDS011;32670;51.464;11.964;2023-06-10T01:12:10;6.77;;;3.20;;
46931;SDS011;32670;51.464;11.964;2023-06-10T01:14:59;6.70;;;3.33;;
46931;SDS011;32670;51.464;11.964;2023-06-10T01:17:26;4.03;;;3.00;;
46931;SDS011;32670;51.464;11.964;2023-06-10T01:19:53;5.87;;;2.80;;
46931;SDS011;32670;51.464;11.964;2023-06-10T01:22:20;4.40;;;3.13;;
46931;SDS011;32670;51.464;11.964;2023-06-10T01:24:47;5.90;;;3.40;;
46931;SDS011;32670;51.464;11.964;2023-06-10T01:27:15;3.90;;;3.03;;
46931;SDS011;32670;51.464;11.964;2023-06-10T01:29:43;5.10;;;3.20;;
46931;SDS011;32670;51.464;11.964;2023-06-10T01:32:15;3.80;;;3.10;;
46931;SDS011;32670;51.464;11.964;2023-06-10T01:34:46;6.73;;;3.43;;
46931;SDS011;32670;51.464;11.964;2023-06-10T01:37:13;4.53;;;3.10;;
46931;SDS011;32670;51.464;11.964;2023-06-10T01:39:43;5.43;;;3.37;;
46931;SDS011;32670;51.464;11.964;2023-06-10T01:42:10;3.70;;;3.20;;
46931;SDS011;32670;51.464;11.964;2023-06-10T01:44:37;3.73;;;3.13;;
46931;SDS011;32670;51.464;11.964;2023-06-10T01:47:04;4.57;;;3.20;;
46931;SDS011;32670;51.464;11.964;2023-06-10T01:49:29;8.07;;;3.53;;
46931;SDS011;32670;51.464;11.964;2023-06-10T01:51:55;5.03;;;3.23;;
46931;SDS011;32670;51.464;11.964;2023-06-10T01:54:20;5.93;;;3.47;;
46931;SDS011;32670;51.464;11.964;2023-06-10T01:56:46;4.90;;;3.10;;
46931;SDS011;32670;51.464;11.964;2023-06-10T01:59:11;5.00;;;3.07;;
46931;SDS011;32670;51.464;11.964;2023-06-10T02:01:37;7.53;;;3.70;;
46931;SDS011;32670;51.464;11.964;2023-06-10T02:04:02;3.77;;;2.97;;
46931;SDS011;32670;51.464;11.964;2023-06-10T02:06:28;5.43;;;3.53;;
46931;SDS011;32670;51.464;11.964;2023-06-10T02:08:53;3.83;;;3.27;;
46931;SDS011;32670;51.464;11.964;2023-06-10T02:11:18;10.30;;;3.83;;
46931;SDS011;32670;51.464;11.964;2023-06-10T02:13:44;4.43;;;3.10;;
46931;SDS011;32670;51.464;11.964;2023-06-10T02:16:09;4.77;;;3.40;;
46931;SDS011;32670;51.464;11.964;2023-06-10T02:18:38;4.83;;;3.23;;
46931;SDS011;32670;51.464;11.964;2023-06-10T02:21:05;4.00;;;3.27;;
46931;SDS011;32670;51.464;11.964;2023-06-10T02:23:31;5.07;;;3.27;;
46931;SDS011;32670;51.464;11.964;2023-06-10T02:25:57;5.60;;;3.20;;
46931;SDS011;32670;51.464;11.964;2023-06-10T02:28:22;5.97;;;3.43;;
46931;SDS011;32670;51.464;11.964;2023-06-10T02:30:48;8.50;;;4.07;;
46931;SDS011;32670;51.464;11.964;2023-06-10T02:33:13;4.70;;;3.00;;
46931;SDS011;32670;51.464;11.964;2023-06-10T02:35:39;4.57;;;3.37;;
46931;SDS011;32670;51.464;11.964;2023-06-10T02:38:05;5.43;;;3.70;;
46931;SDS011;32670;51.464;11.964;2023-06-10T02:40:30;5.17;;;3.30;;
46931;SDS011;32670;51.464;11.964;2023-06-10T02:42:56;4.63;;;3.30;;
46931;SDS011;32670;51.464;11.964;2023-06-10T02:45:23;6.83;;;3.57;;
46931;SDS011;32670;51.464;11.964;2023-06-10T02:47:48;4.53;;;3.43;;
46931;SDS011;32670;51.464;11.964;2023-06-10T02:50:14;4.60;;;3.03;;
46931;SDS011;32670;51.464;11.964;2023-06-10T02:52:40;3.90;;;3.50;;
46931;SDS011;32670;51.464;11.964;2023-06-10T02:55:06;5.97;;;3.63;;
46931;SDS011;32670;51.464;11.964;2023-06-10T02:57:31;5.87;;;3.70;;
46931;SDS011;32670;51.464;11.964;2023-06-10T02:59:57;5.87;;;3.90;;
46931;SDS011;32670;51.464;11.964;2023-06-10T03:02:23;5.30;;;3.70;;
46931;SDS011;32670;51.464;11.964;2023-06-10T03:04:54;4.23;;;3.30;;
46931;SDS011;32670;51.464;11.964;2023-06-10T03:07:20;5.33;;;3.60;;
46931;SDS011;32670;51.464;11.964;2023-06-10T03:09:46;6.57;;;3.80;;
46931;SDS011;32670;51.464;11.964;2023-06-10T03:12:11;8.07;;;3.77;;
46931;SDS011;32670;51.464;11.964;2023-06-10T03:14:37;6.50;;;3.80;;
46931;SDS011;32670;51.464;11.964;2023-06-10T03:17:03;6.63;;;3.90;;
46931;SDS011;32670;51.464;11.964;2023-06-10T03:19:31;3.77;;;3.37;;
46931;SDS011;32670;51.464;11.964;2023-06-10T03:22:06;5.80;;;3.60;;
46931;SDS011;32670;51.464;11.964;2023-06-10T03:24:33;5.20;;;3.20;;
46931;SDS011;32670;51.464;11.964;2023-06-10T03:26:58;5.17;;;3.67;;
46931;SDS011;32670;51.464;11.964;2023-06-10T03:29:25;5.50;;;3.97;;
46931;SDS011;32670;51.464;11.964;2023-06-10T03:31:50;5.60;;;3.93;;
46931;SDS011;32670;51.464;11.964;2023-06-10T03:34:16;7.17;;;4.10;;
46931;SDS011;32670;51.464;11.964;2023-06-10T03:36:41;7.43;;;4.00;;
46931;SDS011;32670;51.464;11.964;2023-06-10T03:39:07;7.17;;;3.80;;
46931;SDS011;32670;51.464;11.964;2023-06-10T03:41:33;6.50;;;3.83;;
46931;SDS011;32670;51.464;11.964;2023-06-10T03:43:59;5.93;;;4.10;;
46931;SDS011;32670;51.464;11.964;2023-06-10T03:46:25;6.23;;;3.90;;
46931;SDS011;32670;51.464;11.964;2023-06-10T03:48:51;4.73;;;3.90;;
46931;SDS011;32670;51.464;11.964;2023-06-10T03:51:16;5.27;;;3.60;;
46931;SDS011;32670;51.464;11.964;2023-06-10T03:53:41;5.70;;;3.93;;
46931;SDS011;32670;51.464;11.964;2023-06-10T03:56:07;5.10;;;3.47;;
46931;SDS011;32670;51.464;11.964;2023-06-10T03:58:32;4.50;;;3.60;;
46931;SDS011;32670;51.464;11.964;2023-06-10T04:00:58;5.93;;;3.93;;
46931;SDS011;32670;51.464;11.964;2023-06-10T04:03:24;5.60;;;3.77;;
46931;SDS011;32670;51.464;11.964;2023-06-10T04:05:49;6.90;;;3.50;;
46931;SDS011;32670;51.464;11.964;2023-06-10T04:08:15;5.03;;;3.63;;
46931;SDS011;32670;51.464;11.964;2023-06-10T04:10:40;5.67;;;3.77;;
46931;SDS011;32670;51.464;11.964;2023-06-10T04:13:06;4.40;;;3.90;;
46931;SDS011;32670;51.464;11.964;2023-06-10T04:15:31;6.60;;;4.00;;
46931;SDS011;32670;51.464;11.964;2023-06-10T04:17:58;6.80;;;3.87;;
46931;SDS011;32670;51.464;11.964;2023-06-10T04:20:23;8.90;;;4.27;;
46931;SDS011;32670;51.464;11.964;2023-06-10T04:22:49;9.00;;;3.77;;
46931;SDS011;32670;51.464;11.964;2023-06-10T04:25:14;8.27;;;4.30;;
46931;SDS011;32670;51.464;11.964;2023-06-10T04:27:41;5.03;;;3.67;;
46931;SDS011;32670;51.464;11.964;2023-06-10T04:30:06;6.67;;;3.80;;
46931;SDS011;32670;51.464;11.964;2023-06-10T04:32:32;5.43;;;3.93;;
46931;SDS011;32670;51.464;11.964;2023-06-10T04:34:57;4.83;;;3.57;;
46931;SDS011;32670;51.464;11.964;2023-06-10T04:37:24;7.73;;;4.00;;
46931;SDS011;32670;51.464;11.964;2023-06-10T04:39:50;4.77;;;3.60;;
46931;SDS011;32670;51.464;11.964;2023-06-10T04:42:15;7.07;;;3.87;;
46931;SDS011;32670;51.464;11.964;2023-06-10T04:44:41;6.07;;;3.73;;
46931;SDS011;32670;51.464;11.964;2023-06-10T04:47:06;5.40;;;3.83;;
46931;SDS011;32670;51.464;11.964;2023-06-10T04:49:32;5.67;;;3.67;;
46931;SDS011;32670;51.464;11.964;2023-06-10T04:51:58;6.13;;;3.60;;
46931;SDS011;32670;51.464;11.964;2023-06-10T04:54:24;5.70;;;4.23;;
46931;SDS011;32670;51.464;11.964;2023-06-10T04:56:50;4.57;;;4.03;;
46931;SDS011;32670;51.464;11.964;2023-06-10T04:59:15;6.73;;;4.30;;
46931;SDS011;32670;51.464;11.964;2023-06-10T05:01:41;5.90;;;4.13;;
46931;SDS011;32670;51.464;11.964;2023-06-10T05:04:06;4.90;;;3.70;;
46931;SDS011;32670;51.464;11.964;2023-06-10T05:06:32;5.67;;;3.80;;
46931;SDS011;32670;51.464;11.964;2023-06-10T05:08:57;5.57;;;4.40;;
46931;SDS011;32670;51.464;11.964;2023-06-10T05:11:23;6.57;;;3.97;;
46931;SDS011;32670;51.464;11.964;2023-06-10T05:13:48;5.10;;;3.80;;
46931;SDS011;32670;51.464;11.964;2023-06-10T05:16:13;5.07;;;4.03;;
46931;SDS011;32670;51.464;11.964;2023-06-10T05:18:40;5.83;;;3.57;;
46931;SDS011;32670;51.464;11.964;2023-06-10T05:21:05;6.10;;;4.20;;
46931;SDS011;32670;51.464;11.964;2023-06-10T05:23:31;3.70;;;3.40;;
46931;SDS011;32670;51.464;11.964;2023-06-10T05:25:56;5.50;;;4.17;;
46931;SDS011;32670;51.464;11.964;2023-06-10T05:28:23;8.10;;;4.03;;
46931;SDS011;32670;51.464;11.964;2023-06-10T05:30:48;7.23;;;3.77;;
46931;SDS011;32670;51.464;11.964;2023-06-10T05:33:14;5.30;;;3.70;;
46931;SDS011;32670;51.464;11.964;2023-06-10T05:35:40;10.63;;;3.90;;
46931;SDS011;32670;51.464;11.964;2023-06-10T05:38:05;9.70;;;3.77;;
46931;SDS011;32670;51.464;11.964;2023-06-10T05:40:31;7.37;;;4.20;;
46931;SDS011;32670;51.464;11.964;2023-06-10T05:42:57;9.77;;;4.57;;
46931;SDS011;32670;51.464;11.964;2023-06-10T05:45:22;5.97;;;4.30;;
46931;SDS011;32670;51.464;11.964;2023-06-10T05:47:48;11.77;;;4.63;;
46931;SDS011;32670;51.464;11.964;2023-06-10T05:50:13;8.63;;;4.77;;
46931;SDS011;32670;51.464;11.964;2023-06-10T05:52:39;6.93;;;4.37;;
46931;SDS011;32670;51.464;11.964;2023-06-10T05:55:07;5.90;;;4.50;;
46931;SDS011;32670;51.464;11.964;2023-06-10T05:57:33;6.37;;;4.73;;
46931;SDS011;32670;51.464;11.964;2023-06-10T05:59:59;6.77;;;4.40;;
46931;SDS011;32670;51.464;11.964;2023-06-10T06:02:24;8.27;;;4.50;;
46931;SDS011;32670;51.464;11.964;2023-06-10T06:04:50;6.97;;;4.13;;
46931;SDS011;32670;51.464;11.964;2023-06-10T06:07:15;6.93;;;4.63;;
46931;SDS011;32670;51.464;11.964;2023-06-10T06:09:41;9.27;;;5.27;;
46931;SDS011;32670;51.464;11.964;2023-06-10T06:12:06;5.90;;;4.27;;
46931;SDS011;32670;51.464;11.964;2023-06-10T06:14:36;8.60;;;4.90;;
46931;SDS011;32670;51.464;11.964;2023-06-10T06:17:02;7.67;;;4.77;;
46931;SDS011;32670;51.464;11.964;2023-06-10T06:19:28;6.90;;;4.50;;
46931;SDS011;32670;51.464;11.964;2023-06-10T06:21:53;7.50;;;5.00;;
46931;SDS011;32670;51.464;11.964;2023-06-10T06:24:19;6.53;;;4.70;;
46931;SDS011;32670;51.464;11.964;2023-06-10T06:26:44;7.93;;;4.80;;
46931;SDS011;32670;51.464;11.964;2023-06-10T06:29:10;9.00;;;5.00;;
46931;SDS011;32670;51.464;11.964;2023-06-10T06:31:36;7.33;;;4.90;;
46931;SDS011;32670;51.464;11.964;2023-06-10T06:34:01;7.37;;;4.57;;
46931;SDS011;32670;51.464;11.964;2023-06-10T06:36:27;10.10;;;5.10;;
46931;SDS011;32670;51.464;11.964;2023-06-10T06:38:52;5.17;;;4.57;;
46931;SDS011;32670;51.464;11.964;2023-06-10T06:41:18;8.43;;;4.80;;
46931;SDS011;32670;51.464;11.964;2023-06-10T06:43:43;7.90;;;5.37;;
46931;SDS011;32670;51.464;11.964;2023-06-10T06:46:09;6.77;;;4.90;;
46931;SDS011;32670;51.464;11.964;2023-06-10T06:48:35;7.80;;;4.63;;
46931;SDS011;32670;51.464;11.964;2023-06-10T06:51:00;9.53;;;5.13;;
46931;SDS011;32670;51.464;11.964;2023-06-10T06:53:26;16.20;;;5.57;;
46931;SDS011;32670;51.464;11.964;2023-06-10T06:55:51;19.97;;;5.30;;
46931;SDS011;32670;51.464;11.964;2023-06-10T06:58:16;10.90;;;5.20;;
46931;SDS011;32670;51.464;11.964;2023-06-10T07:00:42;7.13;;;5.37;;
46931;SDS011;32670;51.464;11.964;2023-06-10T07:03:07;13.20;;;5.43;;
46931;SDS011;32670;51.464;11.964;2023-06-10T07:05:33;11.10;;;5.00;;
46931;SDS011;32670;51.464;11.964;2023-06-10T07:07:58;8.73;;;4.93;;
46931;SDS011;32670;51.464;11.964;2023-06-10T07:10:24;9.43;;;4.83;;
46931;SDS011;32670;51.464;11.964;2023-06-10T07:12:50;7.10;;;5.50;;
46931;SDS011;32670;51.464;11.964;2023-06-10T07:15:16;7.97;;;4.93;;
46931;SDS011;32670;51.464;11.964;2023-06-10T07:17:42;9.13;;;5.97;;
46931;SDS011;32670;51.464;11.964;2023-06-10T07:20:08;7.77;;;5.57;;
46931;SDS011;32670;51.464;11.964;2023-06-10T07:22:34;8.53;;;5.57;;
46931;SDS011;32670;51.464;11.964;2023-06-10T07:25:00;6.57;;;5.17;;
46931;SDS011;32670;51.464;11.964;2023-06-10T07:27:25;6.73;;;5.67;;
46931;SDS011;32670;51.464;11.964;2023-06-10T07:29:51;7.27;;;4.87;;
46931;SDS011;32670;51.464;11.964;2023-06-10T07:32:16;7.83;;;5.73;;
46931;SDS011;32670;51.464;11.964;2023-06-10T07:34:42;9.00;;;5.13;;
46931;SDS011;32670;51.464;11.964;2023-06-10T07:37:08;6.80;;;4.93;;
46931;SDS011;32670;51.464;11.964;2023-06-10T07:39:34;9.23;;;5.60;;
46931;SDS011;32670;51.464;11.964;2023-06-10T07:41:59;8.83;;;5.73;;
46931;SDS011;32670;51.464;11.964;2023-06-10T07:44:25;8.40;;;5.50;;
46931;SDS011;32670;51.464;11.964;2023-06-10T07:46:51;7.10;;;5.70;;
46931;SDS011;32670;51.464;11.964;2023-06-10T07:49:16;8.30;;;5.90;;
46931;SDS011;32670;51.464;11.964;2023-06-10T07:51:42;9.03;;;6.13;;
46931;SDS011;32670;51.464;11.964;2023-06-10T07:54:07;7.20;;;5.33;;
46931;SDS011;32670;51.464;11.964;2023-06-10T07:56:33;7.93;;;5.47;;
46931;SDS011;32670;51.464;11.964;2023-06-10T07:58:58;9.47;;;5.80;;
46931;SDS011;32670;51.464;11.964;2023-06-10T08:01:23;9.13;;;5.10;;
46931;SDS011;32670;51.464;11.964;2023-06-10T08:03:49;8.27;;;5.53;;
46931;SDS011;32670;51.464;11.964;2023-06-10T08:06:15;6.57;;;5.40;;
46931;SDS011;32670;51.464;11.964;2023-06-10T08:08:42;5.93;;;5.00;;
46931;SDS011;32670;51.464;11.964;2023-06-10T08:11:08;8.33;;;4.77;;
46931;SDS011;32670;51.464;11.964;2023-06-10T08:13:35;7.10;;;5.20;;
46931;SDS011;32670;51.464;11.964;2023-06-10T08:16:01;7.03;;;4.90;;
46931;SDS011;32670;51.464;11.964;2023-06-10T08:18:26;5.83;;;4.90;;
46931;SDS011;32670;51.464;11.964;2023-06-10T08:20:52;6.07;;;4.53;;
46931;SDS011;32670;51.464;11.964;2023-06-10T08:23:17;5.93;;;4.53;;
46931;SDS011;32670;51.464;11.964;2023-06-10T08:25:44;7.00;;;4.90;;
46931;SDS011;32670;51.464;11.964;2023-06-10T08:28:10;5.40;;;4.67;;
46931;SDS011;32670;51.464;11.964;2023-06-10T08:30:35;6.20;;;4.57;;
46931;SDS011;32670;51.464;11.964;2023-06-10T08:33:01;6.87;;;5.00;;
46931;SDS011;32670;51.464;11.964;2023-06-10T08:35:26;5.43;;;4.50;;
46931;SDS011;32670;51.464;11.964;2023-06-10T08:37:52;5.23;;;4.77;;
46931;SDS011;32670;51.464;11.964;2023-06-10T08:40:17;7.13;;;4.50;;
46931;SDS011;32670;51.464;11.964;2023-06-10T08:42:43;5.20;;;4.40;;
46931;SDS011;32670;51.464;11.964;2023-06-10T08:45:17;5.07;;;4.60;;
46931;SDS011;32670;51.464;11.964;2023-06-10T08:47:44;5.47;;;4.40;;
46931;SDS011;32670;51.464;11.964;2023-06-10T08:50:11;5.23;;;4.30;;
46931;SDS011;32670;51.464;11.964;2023-06-10T08:52:37;4.80;;;4.40;;
46931;SDS011;32670;51.464;11.964;2023-06-10T08:57:36;5.50;;;4.30;;
46931;SDS011;32670;51.464;11.964;2023-06-10T09:00:02;4.63;;;4.13;;
46931;SDS011;32670;51.464;11.964;2023-06-10T09:02:28;6.00;;;4.50;;
46931;SDS011;32670;51.464;11.964;2023-06-10T09:04:53;5.03;;;4.37;;
46931;SDS011;32670;51.464;11.964;2023-06-10T09:07:21;4.90;;;4.40;;
46931;SDS011;32670;51.464;11.964;2023-06-10T09:09:48;4.50;;;4.10;;
46931;SDS011;32670;51.464;11.964;2023-06-10T09:12:14;4.23;;;3.83;;
46931;SDS011;32670;51.464;11.964;2023-06-10T09:14:41;3.97;;;3.67;;
46931;SDS011;32670;51.464;11.964;2023-06-10T09:17:07;5.60;;;4.10;;
46931;SDS011;32670;51.464;11.964;2023-06-10T09:19:32;4.40;;;4.00;;
46931;SDS011;32670;51.464;11.964;2023-06-10T09:21:58;7.17;;;4.63;;
46931;SDS011;32670;51.464;11.964;2023-06-10T09:24:24;4.40;;;3.97;;
46931;SDS011;32670;51.464;11.964;2023-06-10T09:26:50;5.93;;;4.53;;
46931;SDS011;32670;51.464;11.964;2023-06-10T09:29:26;4.23;;;3.83;;
46931;SDS011;32670;51.464;11.964;2023-06-10T09:31:52;4.13;;;3.80;;
46931;SDS011;32670;51.464;11.964;2023-06-10T09:34:17;4.43;;;3.90;;
46931;SDS011;32670;51.464;11.964;2023-06-10T09:36:43;4.10;;;3.80;;
46931;SDS011;32670;51.464;11.964;2023-06-10T09:39:14;4.67;;;4.17;;
46931;SDS011;32670;51.464;11.964;2023-06-10T09:41:42;4.17;;;3.80;;
46931;SDS011;32670;51.464;11.964;2023-06-10T09:44:12;4.03;;;3.63;;
46931;SDS011;32670;51.464;11.964;2023-06-10T09:46:39;4.30;;;3.90;;
46931;SDS011;32670;51.464;11.964;2023-06-10T09:49:05;4.17;;;3.77;;
46931;SDS011;32670;51.464;11.964;2023-06-10T09:51:31;4.03;;;3.70;;
46931;SDS011;32670;51.464;11.964;2023-06-10T09:53:57;4.30;;;3.90;;
46931;SDS011;32670;51.464;11.964;2023-06-10T09:56:32;4.37;;;3.97;;
46931;SDS011;32670;51.464;11.964;2023-06-10T09:58:59;4.10;;;3.70;;
46931;SDS011;32670;51.464;11.964;2023-06-10T10:01:24;3.70;;;3.40;;
46931;SDS011;32670;51.464;11.964;2023-06-10T10:03:50;5.43;;;4.20;;
46931;SDS011;32670;51.464;11.964;2023-06-10T10:06:16;4.07;;;3.67;;
46931;SDS011;32670;51.464;11.964;2023-06-10T10:08:43;4.57;;;4.17;;
46931;SDS011;32670;51.464;11.964;2023-06-10T10:11:14;4.30;;;3.67;;
46931;SDS011;32670;51.464;11.964;2023-06-10T10:13:47;3.97;;;3.67;;
46931;SDS011;32670;51.464;11.964;2023-06-10T10:16:16;4.10;;;3.70;;
46931;SDS011;32670;51.464;11.964;2023-06-10T10:18:49;4.07;;;3.67;;
46931;SDS011;32670;51.464;11.964;2023-06-10T10:21:22;4.07;;;3.23;;
46931;SDS011;32670;51.464;11.964;2023-06-10T10:26:27;3.93;;;3.53;;
46931;SDS011;32670;51.464;11.964;2023-06-10T10:31:43;3.93;;;3.60;;
46931;SDS011;32670;51.464;11.964;2023-06-10T10:34:12;5.83;;;5.23;;
46931;SDS011;32670;51.464;11.964;2023-06-10T10:36:40;5.13;;;4.63;;
46931;SDS011;32670;51.464;11.964;2023-06-10T10:39:07;5.23;;;4.73;;
46931;SDS011;32670;51.464;11.964;2023-06-10T10:41:34;5.83;;;4.50;;
46931;SDS011;32670;51.464;11.964;2023-06-10T10:44:02;4.90;;;4.50;;
46931;SDS011;32670;51.464;11.964;2023-06-10T10:46:37;6.30;;;5.50;;
46931;SDS011;32670;51.464;11.964;2023-06-10T10:49:07;5.53;;;5.03;;
46931;SDS011;32670;51.464;11.964;2023-06-10T10:51:35;6.13;;;5.30;;
46931;SDS011;32670;51.464;11.964;2023-06-10T10:54:09;6.23;;;5.40;;
46931;SDS011;32670;51.464;11.964;2023-06-10T10:56:37;5.63;;;5.07;;
46931;SDS011;32670;51.464;11.964;2023-06-10T10:59:03;5.40;;;4.90;;
46931;SDS011;32670;51.464;11.964;2023-06-10T11:01:39;5.50;;;5.10;;
46931;SDS011;32670;51.464;11.964;2023-06-10T11:04:11;5.40;;;4.90;;
46931;SDS011;32670;51.464;11.964;2023-06-10T11:06:37;5.67;;;4.90;;
46931;SDS011;32670;51.464;11.964;2023-06-10T11:09:24;5.43;;;4.93;;
46931;SDS011;32670;51.464;11.964;2023-06-10T11:11:56;5.37;;;4.80;;
46931;SDS011;32670;51.464;11.964;2023-06-10T11:14:30;5.90;;;4.63;;
46931;SDS011;32670;51.464;11.964;2023-06-10T11:16:57;5.23;;;4.83;;
46931;SDS011;32670;51.464;11.964;2023-06-10T11:19:36;5.37;;;4.87;;
46931;SDS011;32670;51.464;11.964;2023-06-10T11:22:05;5.97;;;5.20;;
46931;SDS011;32670;51.464;11.964;2023-06-10T11:24:32;5.47;;;5.07;;
46931;SDS011;32670;51.464;11.964;2023-06-10T11:29:58;5.43;;;4.93;;
46931;SDS011;32670;51.464;11.964;2023-06-10T11:32:28;5.40;;;5.00;;
46931;SDS011;32670;51.464;11.964;2023-06-10T11:34:55;5.73;;;5.23;;
46931;SDS011;32670;51.464;11.964;2023-06-10T11:37:21;5.20;;;4.80;;
46931;SDS011;32670;51.464;11.964;2023-06-10T11:39:46;5.57;;;5.07;;
46931;SDS011;32670;51.464;11.964;2023-06-10T11:42:16;5.13;;;4.73;;
46931;SDS011;32670;51.464;11.964;2023-06-10T11:44:47;5.73;;;5.13;;
46931;SDS011;32670;51.464;11.964;2023-06-10T11:47:14;5.90;;;5.37;;
46931;SDS011;32670;51.464;11.964;2023-06-10T11:49:40;5.60;;;4.97;;
46931;SDS011;32670;51.464;11.964;2023-06-10T11:52:05;5.47;;;5.07;;
46931;SDS011;32670;51.464;11.964;2023-06-10T11:54:31;5.23;;;4.83;;
46931;SDS011;32670;51.464;11.964;2023-06-10T11:56:57;6.07;;;5.40;;
46931;SDS011;32670;51.464;11.964;2023-06-10T11:59:26;5.80;;;5.30;;
46931;SDS011;32670;51.464;11.964;2023-06-10T12:01:52;5.73;;;5.27;;
46931;SDS011;32670;51.464;11.964;2023-06-10T12:04:17;5.60;;;5.10;;
46931;SDS011;32670;51.464;11.964;2023-06-10T12:06:50;5.80;;;5.30;;
46931;SDS011;32670;51.464;11.964;2023-06-10T12:11:45;6.13;;;5.63;;
46931;SDS011;32670;51.464;11.964;2023-06-10T12:14:13;5.17;;;4.77;;
46931;SDS011;32670;51.464;11.964;2023-06-10T12:16:38;5.60;;;5.10;;
46931;SDS011;32670;51.464;11.964;2023-06-10T12:19:04;5.40;;;5.00;;
46931;SDS011;32670;51.464;11.964;2023-06-10T12:21:32;5.33;;;4.93;;
46931;SDS011;32670;51.464;11.964;2023-06-10T12:24:02;5.53;;;5.13;;
46931;SDS011;32670;51.464;11.964;2023-06-10T12:26:34;5.70;;;5.20;;
46931;SDS011;32670;51.464;11.964;2023-06-10T12:31:57;5.80;;;5.33;;
46931;SDS011;32670;51.464;11.964;2023-06-10T12:34:31;6.03;;;5.43;;
46931;SDS011;32670;51.464;11.964;2023-06-10T12:37:00;6.00;;;5.40;;
46931;SDS011;32670;51.464;11.964;2023-06-10T12:39:29;6.10;;;5.60;;
46931;SDS011;32670;51.464;11.964;2023-06-10T12:41:55;5.97;;;5.47;;
46931;SDS011;32670;51.464;11.964;2023-06-10T12:44:30;8.30;;;7.50;;
46931;SDS011;32670;51.464;11.964;2023-06-10T12:47:01;7.17;;;6.57;;
46931;SDS011;32670;51.464;11.964;2023-06-10T12:49:32;6.80;;;6.20;;
46931;SDS011;32670;51.464;11.964;2023-06-10T12:51:58;7.03;;;6.43;;
46931;SDS011;32670;51.464;11.964;2023-06-10T12:54:23;7.23;;;6.67;;
46931;SDS011;32670;51.464;11.964;2023-06-10T12:56:49;8.20;;;7.50;;
46931;SDS011;32670;51.464;11.964;2023-06-10T12:59:15;7.90;;;7.20;;
46931;SDS011;32670;51.464;11.964;2023-06-10T13:01:40;7.83;;;7.13;;
46931;SDS011;32670;51.464;11.964;2023-06-10T13:04:06;8.73;;;7.23;;
46931;SDS011;32670;51.464;11.964;2023-06-10T13:06:32;7.47;;;6.87;;
46931;SDS011;32670;51.464;11.964;2023-06-10T13:09:01;7.37;;;6.77;;
46931;SDS011;32670;51.464;11.964;2023-06-10T13:11:27;7.63;;;7.00;;
46931;SDS011;32670;51.464;11.964;2023-06-10T13:13:53;7.13;;;6.53;;
46931;SDS011;32670;51.464;11.964;2023-06-10T13:16:18;7.30;;;6.70;;
46931;SDS011;32670;51.464;11.964;2023-06-10T13:18:44;7.97;;;7.27;;
46931;SDS011;32670;51.464;11.964;2023-06-10T13:21:09;7.87;;;7.10;;
46931;SDS011;32670;51.464;11.964;2023-06-10T13:23:35;7.50;;;6.90;;
46931;SDS011;32670;51.464;11.964;2023-06-10T13:26:00;7.53;;;6.93;;
46931;SDS011;32670;51.464;11.964;2023-06-10T13:28:28;7.73;;;7.03;;
46931;SDS011;32670;51.464;11.964;2023-06-10T13:30:53;7.43;;;6.83;;
46931;SDS011;32670;51.464;11.964;2023-06-10T13:33:19;7.87;;;7.27;;
46931;SDS011;32670;51.464;11.964;2023-06-10T13:35:44;7.63;;;7.03;;
46931;SDS011;32670;51.464;11.964;2023-06-10T13:38:10;7.90;;;7.10;;
46931;SDS011;32670;51.464;11.964;2023-06-10T13:40:35;8.03;;;7.33;;
46931;SDS011;32670;51.464;11.964;2023-06-10T13:43:01;8.10;;;7.50;;
46931;SDS011;32670;51.464;11.964;2023-06-10T13:45:37;7.50;;;6.93;;
46931;SDS011;32670;51.464;11.964;2023-06-10T13:48:02;7.80;;;7.10;;
46931;SDS011;32670;51.464;11.964;2023-06-10T13:50:29;8.37;;;7.67;;
46931;SDS011;32670;51.464;11.964;2023-06-10T13:52:54;8.00;;;7.20;;
46931;SDS011;32670;51.464;11.964;2023-06-10T13:55:20;8.50;;;7.73;;
46931;SDS011;32670;51.464;11.964;2023-06-10T13:57:45;8.10;;;7.50;;
46931;SDS011;32670;51.464;11.964;2023-06-10T14:00:11;7.70;;;7.10;;
46931;SDS011;32670;51.464;11.964;2023-06-10T14:02:37;8.80;;;8.10;;
46931;SDS011;32670;51.464;11.964;2023-06-10T14:05:03;7.63;;;6.97;;
46931;SDS011;32670;51.464;11.964;2023-06-10T14:07:30;9.07;;;8.27;;
46931;SDS011;32670;51.464;11.964;2023-06-10T14:09:55;8.40;;;7.67;;
46931;SDS011;32670;51.464;11.964;2023-06-10T14:12:21;8.30;;;7.60;;
46931;SDS011;32670;51.464;11.964;2023-06-10T14:14:47;8.33;;;7.63;;
46931;SDS011;32670;51.464;11.964;2023-06-10T14:17:12;8.80;;;8.00;;
46931;SDS011;32670;51.464;11.964;2023-06-10T14:19:37;9.00;;;8.20;;
46931;SDS011;32670;51.464;11.964;2023-06-10T14:22:05;8.53;;;7.83;;
46931;SDS011;32670;51.464;11.964;2023-06-10T14:24:31;9.47;;;8.67;;
46931;SDS011;32670;51.464;11.964;2023-06-10T14:26:57;9.90;;;9.00;;
46931;SDS011;32670;51.464;11.964;2023-06-10T14:29:23;9.07;;;8.27;;
46931;SDS011;32670;51.464;11.964;2023-06-10T14:31:48;9.87;;;9.07;;
46931;SDS011;32670;51.464;11.964;2023-06-10T14:34:14;9.77;;;8.97;;
46931;SDS011;32670;51.464;11.964;2023-06-10T14:36:39;9.50;;;8.70;;
46931;SDS011;32670;51.464;11.964;2023-06-10T14:39:05;9.07;;;8.37;;
46931;SDS011;32670;51.464;11.964;2023-06-10T14:41:31;9.57;;;8.77;;
46931;SDS011;32670;51.464;11.964;2023-06-10T14:43:56;9.17;;;8.47;;
46931;SDS011;32670;51.464;11.964;2023-06-10T14:46:22;9.50;;;8.80;;